Time;durP1;ratioP1;P1;durP2;ratioP2;P2;SDS_P1;SDS_P2;PMS_P1;PMS_P2;Temp;Humidity;BMP_temperature;BMP_pressure;BME280_temperature;BME280_humidity;BME280_pressure;Samples;Min_cycle;Max_cycle;Signal;HPM_P1;HPM_P2
2021/12/04 00:00:23;;;;;;;5.43;3.47;;;22.70;38.90;;;;;;5025922;28;20689;-46
2021/12/04 00:02:50;;;;;;;4.57;3.17;;;22.70;38.90;;;;;;5025786;28;20100;-46
2021/12/04 00:05:18;;;;;;;4.72;3.20;;;22.70;38.90;;;;;;5027537;28;20025;-46
2021/12/04 00:07:43;;;;;;;4.75;3.30;;;22.70;38.80;;;;;;5025832;28;20599;-47
2021/12/04 00:10:13;;;;;;;4.40;3.28;;;22.70;38.90;;;;;;5025388;28;20044;-47
2021/12/04 00:12:39;;;;;;;4.43;2.97;;;22.60;39.00;;;;;;5026347;28;20029;-47
2021/12/04 00:15:05;;;;;;;4.85;3.05;;;22.60;38.90;;;;;;5025927;28;20026;-47
2021/12/04 00:17:31;;;;;;;4.55;2.90;;;22.60;39.00;;;;;;5026894;28;20100;-47
2021/12/04 00:19:56;;;;;;;5.35;3.42;;;22.60;39.00;;;;;;5026844;28;20232;-46
2021/12/04 00:22:22;;;;;;;4.15;2.85;;;22.60;39.00;;;;;;5025285;28;20659;-46
2021/12/04 00:24:48;;;;;;;4.60;3.25;;;22.60;39.00;;;;;;5027038;28;20033;-47
2021/12/04 00:27:14;;;;;;;4.43;3.03;;;22.60;39.00;;;;;;5027033;28;20021;-46
2021/12/04 00:29:39;;;;;;;4.53;3.05;;;22.60;39.00;;;;;;5026881;28;20028;-46
2021/12/04 00:32:21;;;;;;;4.35;2.97;;;22.60;39.00;;;;;;5026245;28;20033;-46
2021/12/04 00:34:53;;;;;;;4.70;2.90;;;22.60;39.00;;;;;;5026094;28;20390;-47
2021/12/04 00:49:18;;;;;;;4.32;2.65;;;22.50;38.90;;;;;;5006630;28;20149;-46
2021/12/04 00:51:12;;;;;;;4.15;2.45;;;22.50;38.90;;;;;;5041716;28;20041;-46
2021/12/04 00:53:38;;;;;;;4.85;2.92;;;22.50;38.90;;;;;;5041014;28;20037;-45
2021/12/04 00:56:04;;;;;;;4.45;2.70;;;22.50;38.90;;;;;;5025504;28;20036;-47
2021/12/04 00:58:30;;;;;;;4.65;2.80;;;22.50;38.90;;;;;;5026171;28;20421;-45
2021/12/04 01:00:56;;;;;;;3.33;2.08;;;22.50;38.90;;;;;;5025062;28;20037;-48
2021/12/04 01:03:22;;;;;;;4.07;2.60;;;22.50;38.90;;;;;;5025770;28;20431;-46
2021/12/04 01:05:48;;;;;;;4.63;2.80;;;22.50;38.90;;;;;;5024682;28;20029;-47
2021/12/04 01:08:14;;;;;;;4.15;2.70;;;22.50;38.90;;;;;;5005781;28;20108;-46
2021/12/04 01:10:40;;;;;;;4.13;2.58;;;22.40;38.80;;;;;;4987541;28;20097;-48
2021/12/04 01:13:10;;;;;;;5.03;2.80;;;22.40;38.80;;;;;;5005528;28;20026;-46
2021/12/04 01:15:41;;;;;;;4.22;2.63;;;22.40;38.80;;;;;;5005519;28;20022;-47
2021/12/04 01:18:07;;;;;;;3.95;2.45;;;22.40;38.80;;;;;;5006056;28;20026;-45
2021/12/04 01:20:33;;;;;;;4.35;2.63;;;22.40;38.80;;;;;;5006136;28;20065;-47
2021/12/04 01:22:59;;;;;;;4.05;2.35;;;22.40;38.80;;;;;;5023114;28;20084;-47
2021/12/04 01:25:24;;;;;;;4.68;2.50;;;22.40;38.80;;;;;;5026105;28;20104;-46
2021/12/04 01:27:50;;;;;;;3.85;2.10;;;22.40;38.80;;;;;;5024376;28;20025;-46
2021/12/04 01:30:16;;;;;;;3.25;2.15;;;22.30;38.80;;;;;;5025481;28;20029;-46
2021/12/04 01:32:42;;;;;;;4.57;2.75;;;22.30;38.80;;;;;;5025475;28;20087;-46
2021/12/04 01:35:08;;;;;;;4.35;2.50;;;22.30;38.80;;;;;;5024662;28;20021;-47
2021/12/04 01:37:33;;;;;;;3.58;2.15;;;22.30;38.80;;;;;;5025482;28;20405;-46
2021/12/04 01:39:59;;;;;;;3.88;2.38;;;22.30;38.80;;;;;;5025563;28;20030;-46
2021/12/04 01:42:25;;;;;;;3.28;2.15;;;22.30;38.80;;;;;;5025446;28;20095;-47
2021/12/04 01:44:51;;;;;;;3.20;1.67;;;22.30;38.80;;;;;;5023548;28;20025;-47
2021/12/04 01:47:21;;;;;;;3.65;2.28;;;22.30;38.80;;;;;;5025870;28;20676;-47
2021/12/04 01:49:49;;;;;;;3.78;2.15;;;22.30;38.80;;;;;;5029413;28;20029;-47
2021/12/04 01:52:17;;;;;;;3.67;2.13;;;22.30;38.80;;;;;;5033808;28;20040;-47
2021/12/04 01:54:44;;;;;;;3.03;1.92;;;22.30;38.80;;;;;;5025480;28;20512;-47
2021/12/04 01:57:14;;;;;;;3.33;1.90;;;22.30;38.80;;;;;;5024888;28;20044;-46
2021/12/04 01:59:40;;;;;;;3.30;1.85;;;22.20;38.70;;;;;;5025601;28;20033;-47
2021/12/04 02:02:06;;;;;;;3.58;2.13;;;22.30;38.80;;;;;;5024410;28;20041;-47
2021/12/04 02:04:32;;;;;;;4.20;2.20;;;22.30;38.80;;;;;;5025236;28;20250;-47
2021/12/04 02:07:02;;;;;;;3.28;1.90;;;22.20;38.70;;;;;;5023560;28;20064;-47
2021/12/04 02:09:29;;;;;;;3.65;1.95;;;22.20;38.60;;;;;;5025278;28;20053;-47
2021/12/04 02:11:55;;;;;;;3.80;2.10;;;22.20;38.70;;;;;;5024540;28;20029;-47
2021/12/04 02:14:20;;;;;;;3.67;2.08;;;22.20;38.60;;;;;;5024287;28;20024;-47
2021/12/04 02:16:46;;;;;;;3.50;1.90;;;22.20;38.80;;;;;;5024704;28;20075;-47
2021/12/04 02:19:14;;;;;;;3.22;1.95;;;22.20;38.80;;;;;;5024117;28;20143;-47
2021/12/04 02:21:40;;;;;;;3.85;2.00;;;22.20;38.80;;;;;;5025027;28;20044;-46
2021/12/04 02:24:05;;;;;;;3.80;2.00;;;22.20;38.80;;;;;;5024536;28;20537;-47
2021/12/04 02:26:31;;;;;;;3.60;2.13;;;22.20;38.70;;;;;;5024455;28;20068;-48
2021/12/04 02:28:58;;;;;;;4.10;2.13;;;22.20;38.70;;;;;;5024558;28;20026;-46
2021/12/04 02:31:25;;;;;;;3.13;2.05;;;22.20;38.70;;;;;;5022660;28;20064;-46
2021/12/04 02:33:51;;;;;;;3.40;1.90;;;22.10;38.70;;;;;;5023864;28;20034;-47
2021/12/04 02:36:17;;;;;;;2.85;1.60;;;22.10;38.70;;;;;;5033482;28;20489;-48
2021/12/04 02:38:49;;;;;;;3.20;1.77;;;22.10;38.70;;;;;;5023982;28;20018;-47
2021/12/04 02:41:14;;;;;;;2.83;1.63;;;22.10;38.70;;;;;;5022971;28;20033;-47
2021/12/04 02:43:40;;;;;;;3.75;1.98;;;22.20;38.70;;;;;;5024298;28;20033;-47
2021/12/04 02:46:06;;;;;;;2.88;1.50;;;22.10;38.70;;;;;;5024221;28;20037;-47
2021/12/04 02:48:32;;;;;;;3.42;1.80;;;22.10;38.70;;;;;;5024340;28;20565;-47
2021/12/04 02:50:58;;;;;;;3.10;1.80;;;22.10;38.70;;;;;;5038156;28;20611;-45
2021/12/04 02:53:23;;;;;;;3.20;1.80;;;22.10;38.70;;;;;;5022828;28;20021;-48
2021/12/04 02:55:52;;;;;;;2.80;1.70;;;22.10;38.70;;;;;;5023569;28;20025;-47
2021/12/04 02:58:19;;;;;;;3.35;1.70;;;22.10;38.70;;;;;;5023974;28;20437;-47
2021/12/04 03:00:50;;;;;;;3.05;1.70;;;22.10;38.70;;;;;;5024130;28;20029;-46
2021/12/04 03:03:18;;;;;;;3.28;1.95;;;22.00;38.70;;;;;;5024024;28;20661;-47
2021/12/04 03:05:47;;;;;;;3.63;1.90;;;22.00;38.60;;;;;;5024312;28;20032;-47
2021/12/04 03:08:13;;;;;;;3.38;1.75;;;22.00;38.70;;;;;;5006065;28;20038;-47
2021/12/04 03:10:39;;;;;;;3.15;1.67;;;22.00;38.70;;;;;;5004511;28;20129;-46
2021/12/04 03:13:08;;;;;;;3.58;1.70;;;22.00;38.70;;;;;;5004294;28;20100;-46
2021/12/04 03:15:34;;;;;;;3.05;1.90;;;22.00;38.70;;;;;;5004192;28;20046;-48
2021/12/04 03:18:00;;;;;;;2.50;1.50;;;22.00;38.70;;;;;;5004485;28;20030;-48
2021/12/04 03:20:26;;;;;;;2.80;1.45;;;22.00;38.70;;;;;;5004771;28;20489;-46
2021/12/04 03:22:58;;;;;;;3.33;1.40;;;22.00;38.70;;;;;;5017140;28;20724;-48
2021/12/04 03:25:24;;;;;;;2.70;1.43;;;22.00;38.70;;;;;;5024580;28;20018;-47
2021/12/04 03:27:51;;;;;;;2.55;1.33;;;22.00;38.70;;;;;;5027873;28;20272;-46
2021/12/04 03:40:59;;;;;;;2.90;1.50;;;22.00;38.70;;;;;;5028161;28;20592;-46
2021/12/04 03:43:25;;;;;;;3.55;1.65;;;22.00;38.70;;;;;;5027347;28;20061;-46
2021/12/04 03:45:58;;;;;;;2.40;1.33;;;21.90;38.70;;;;;;5026041;28;20029;-46
2021/12/04 03:50:57;;;;;;;3.00;1.52;;;21.90;38.70;;;;;;5037104;28;20032;-47
2021/12/04 03:53:23;;;;;;;2.70;1.52;;;21.90;38.70;;;;;;5022559;28;20037;-46
2021/12/04 03:55:52;;;;;;;2.92;1.67;;;21.90;38.60;;;;;;5027377;28;20025;-47
2021/12/04 03:58:18;;;;;;;2.90;1.67;;;21.90;38.70;;;;;;5026316;28;20029;-47
2021/12/04 04:00:44;;;;;;;2.80;1.70;;;21.90;38.60;;;;;;5025300;28;20034;-47
2021/12/04 04:03:10;;;;;;;3.15;1.40;;;21.90;38.60;;;;;;5027060;28;20440;-46
2021/12/04 04:05:36;;;;;;;3.13;1.58;;;21.80;38.50;;;;;;5026222;28;20036;-47
2021/12/04 04:08:02;;;;;;;2.58;1.58;;;21.80;38.60;;;;;;5026690;28;20192;-47
2021/12/04 04:10:27;;;;;;;3.55;1.73;;;21.80;38.70;;;;;;5027302;28;20022;-48
2021/12/04 04:12:53;;;;;;;2.80;1.73;;;21.80;38.70;;;;;;5025512;28;20488;-47
2021/12/04 04:15:21;;;;;;;2.47;1.58;;;21.80;38.60;;;;;;5027399;28;20087;-46
2021/12/04 04:17:47;;;;;;;2.92;1.60;;;21.80;38.60;;;;;;5026909;28;20674;-46
2021/12/04 04:20:16;;;;;;;3.10;1.90;;;21.90;38.60;;;;;;5027007;28;20025;-47
2021/12/04 04:22:43;;;;;;;2.70;1.50;;;21.90;38.60;;;;;;5026525;28;20061;-46
2021/12/04 04:25:10;;;;;;;4.00;1.83;;;21.80;38.50;;;;;;5026781;28;20022;-47
2021/12/04 04:27:37;;;;;;;2.40;1.30;;;21.80;38.50;;;;;;5027649;28;20034;-47
2021/12/04 04:30:06;;;;;;;3.00;1.40;;;21.80;38.50;;;;;;5035657;28;20029;-47
2021/12/04 04:32:33;;;;;;;2.45;1.38;;;21.80;38.50;;;;;;5023995;28;20030;-47
2021/12/04 04:35:08;;;;;;;3.10;1.70;;;21.80;38.50;;;;;;5030123;28;20051;-47
2021/12/04 04:37:49;;;;;;;3.28;1.67;;;21.80;38.50;;;;;;5026371;28;20034;-47
2021/12/04 04:59:51;;;;;;;3.42;1.60;;;21.80;38.50;;;;;;5023722;28;20033;-47
2021/12/04 05:02:38;;;;;;;;;;;21.80;38.50;;;;;;5026227;28;20041;-47
2021/12/04 05:13:22;;;;;;;2.63;1.40;;;21.70;38.50;;;;;;5025410;28;20075;-48
2021/12/04 05:21:05;;;;;;;2.85;1.45;;;21.70;38.40;;;;;;5025563;28;20017;-47
2021/12/04 05:23:48;;;;;;;3.10;1.80;;;21.70;38.40;;;;;;5025172;28;20133;-47
2021/12/04 05:26:19;;;;;;;3.25;1.50;;;21.70;38.50;;;;;;5026039;28;20025;-47
2021/12/04 05:28:46;;;;;;;2.67;1.50;;;21.70;38.50;;;;;;5025391;28;20035;-48
2021/12/04 05:31:12;;;;;;;2.83;1.52;;;21.70;38.50;;;;;;5025514;28;20076;-46
2021/12/04 05:33:39;;;;;;;3.15;1.85;;;21.70;38.60;;;;;;5025301;28;20025;-47
2021/12/04 05:36:05;;;;;;;2.83;1.60;;;21.70;38.50;;;;;;5024276;28;20029;-48
2021/12/04 05:38:31;;;;;;;2.47;1.42;;;21.70;38.50;;;;;;5024645;28;20067;-47
2021/12/04 05:40:58;;;;;;;2.85;1.58;;;21.70;38.50;;;;;;5026117;28;20553;-47
2021/12/04 05:43:25;;;;;;;2.33;1.25;;;21.70;38.50;;;;;;5025583;28;20057;-47
2021/12/04 05:46:02;;;;;;;3.72;1.50;;;21.70;38.50;;;;;;5024234;28;20235;-46
2021/12/04 05:48:37;;;;;;;2.83;1.35;;;21.70;38.50;;;;;;5024424;28;20040;-47
2021/12/04 05:56:24;;;;;;;3.00;1.42;;;21.70;38.40;;;;;;5024798;28;20037;-47
2021/12/04 05:58:51;;;;;;;3.35;1.73;;;21.70;38.30;;;;;;5024444;28;20029;-48
2021/12/04 06:01:19;;;;;;;3.80;1.50;;;21.70;38.40;;;;;;5024316;28;20041;-48
2021/12/04 06:03:45;;;;;;;2.35;1.27;;;21.70;38.30;;;;;;5024892;28;20036;-47
2021/12/04 06:06:12;;;;;;;2.97;1.40;;;21.70;38.30;;;;;;5025109;28;20029;-47
2021/12/04 06:08:37;;;;;;;2.78;1.58;;;21.70;38.30;;;;;;5024492;28;20029;-46
2021/12/04 06:11:03;;;;;;;3.15;1.65;;;21.70;38.40;;;;;;5023827;28;20051;-50
2021/12/04 06:13:29;;;;;;;4.38;1.77;;;21.70;38.40;;;;;;5024494;28;20117;-47
2021/12/04 06:15:56;;;;;;;2.30;1.20;;;21.70;38.50;;;;;;5025005;28;20872;-47
2021/12/04 06:18:22;;;;;;;2.55;1.40;;;21.70;38.50;;;;;;5024664;28;20044;-47
2021/12/04 06:23:33;;;;;;;2.10;1.20;;;21.70;38.60;;;;;;5023972;28;20091;-48
2021/12/04 06:26:00;;;;;;;3.58;1.42;;;21.60;38.50;;;;;;5024694;28;20049;-47
2021/12/04 06:28:26;;;;;;;3.88;1.40;;;21.70;38.70;;;;;;5024336;28;20087;-47
2021/12/04 06:30:55;;;;;;;3.13;1.50;;;21.70;38.80;;;;;;5024412;28;20030;-46
2021/12/04 06:33:21;;;;;;;4.00;1.58;;;21.70;38.80;;;;;;5024018;28;20030;-47
2021/12/04 06:35:48;;;;;;;2.88;1.50;;;21.70;38.80;;;;;;5024897;28;20026;-46
2021/12/04 06:38:18;;;;;;;3.33;1.38;;;21.80;38.80;;;;;;5024277;28;20048;-48
2021/12/04 06:40:46;;;;;;;5.75;1.92;;;21.90;38.90;;;;;;5024274;28;20072;-48
2021/12/04 06:43:13;;;;;;;2.88;1.33;;;21.90;38.90;;;;;;5023853;28;20030;-47
2021/12/04 06:45:45;;;;;;;2.58;1.17;;;22.00;38.80;;;;;;5024577;28;20147;-48
2021/12/04 06:51:04;;;;;;;2.17;1.30;;;22.10;38.70;;;;;;5035239;28;20092;-47
2021/12/04 06:53:42;;;;;;;3.30;1.30;;;22.10;38.70;;;;;;5027761;28;20048;-48
2021/12/04 06:56:11;;;;;;;2.25;1.10;;;22.20;38.60;;;;;;5022918;28;20530;-48
2021/12/04 06:58:37;;;;;;;3.08;1.40;;;22.30;38.60;;;;;;5023936;28;20171;-47
2021/12/04 07:01:05;;;;;;;2.58;1.35;;;22.30;38.50;;;;;;5023594;28;20110;-46
2021/12/04 07:03:31;;;;;;;3.30;1.50;;;22.40;38.40;;;;;;5023700;28;20141;-46
2021/12/04 07:05:57;;;;;;;2.47;1.25;;;22.50;38.40;;;;;;5022857;28;20112;-46
2021/12/04 07:08:22;;;;;;;2.60;1.30;;;22.60;38.90;;;;;;5007211;28;20041;-46
2021/12/04 07:10:48;;;;;;;2.13;1.10;;;22.60;38.20;;;;;;5004176;28;20030;-46
2021/12/04 07:13:14;;;;;;;3.15;1.30;;;22.60;38.00;;;;;;5004336;28;20022;-46
2021/12/04 07:15:43;;;;;;;1.92;0.90;;;22.70;38.00;;;;;;5003751;28;20030;-46
2021/12/04 07:18:09;;;;;;;3.55;1.00;;;22.80;38.00;;;;;;5004338;28;20033;-46
2021/12/04 07:20:34;;;;;;;2.55;1.13;;;22.90;37.90;;;;;;5004392;28;20055;-46
2021/12/04 07:23:00;;;;;;;2.17;1.20;;;22.90;37.80;;;;;;5014806;28;20033;-46
2021/12/04 07:25:27;;;;;;;2.55;1.02;;;23.00;37.70;;;;;;5023519;28;20429;-45
2021/12/04 07:27:53;;;;;;;2.58;1.20;;;23.10;37.60;;;;;;5023359;28;20056;-46
2021/12/04 07:30:20;;;;;;;6.78;1.55;;;23.10;37.60;;;;;;5022634;28;20481;-46
2021/12/04 07:32:46;;;;;;;2.50;1.20;;;23.10;37.50;;;;;;5020319;28;20104;-46
2021/12/04 07:35:14;;;;;;;3.83;1.20;;;23.20;37.70;;;;;;5023542;28;20485;-46
2021/12/04 07:37:40;;;;;;;4.03;1.30;;;23.30;37.60;;;;;;5021292;28;20057;-46
2021/12/04 07:40:08;;;;;;;3.03;1.40;;;23.30;37.70;;;;;;5018465;28;20025;-46
2021/12/04 07:42:34;;;;;;;2.95;1.38;;;23.30;37.50;;;;;;5022136;28;20033;-46
2021/12/04 07:44:59;;;;;;;2.65;1.42;;;23.40;37.50;;;;;;5020819;28;20021;-46
2021/12/04 07:47:26;;;;;;;3.53;1.30;;;23.40;37.50;;;;;;5021093;28;20033;-46
2021/12/04 07:49:52;;;;;;;2.65;1.20;;;23.50;37.60;;;;;;5022746;28;20037;-47
2021/12/04 07:52:18;;;;;;;3.67;1.48;;;23.50;37.60;;;;;;5011508;28;20502;-46
2021/12/04 07:54:43;;;;;;;3.58;1.20;;;23.60;37.60;;;;;;5020998;28;20068;-47
2021/12/04 07:57:09;;;;;;;3.90;1.63;;;23.60;37.50;;;;;;5020111;28;20025;-46
2021/12/04 07:59:35;;;;;;;2.70;1.40;;;23.60;37.60;;;;;;5021613;28;20057;-46
2021/12/04 08:02:01;;;;;;;4.05;1.60;;;23.70;37.90;;;;;;5017911;28;20185;-47
2021/12/04 08:04:26;;;;;;;4.32;1.50;;;23.80;37.80;;;;;;5018797;28;20029;-46
2021/12/04 08:06:53;;;;;;;2.55;1.30;;;23.90;37.90;;;;;;5015690;28;20025;-46
2021/12/04 08:09:19;;;;;;;3.60;1.63;;;23.90;37.90;;;;;;5020233;28;20052;-46
2021/12/04 08:11:46;;;;;;;3.67;1.48;;;24.00;38.00;;;;;;5023603;28;20091;-46
2021/12/04 08:14:12;;;;;;;3.42;1.50;;;24.00;37.90;;;;;;5022925;28;20022;-47
2021/12/04 08:16:38;;;;;;;3.50;1.67;;;24.00;37.90;;;;;;5024191;28;20783;-46
2021/12/04 08:19:04;;;;;;;3.20;1.83;;;24.00;37.90;;;;;;5025959;28;20029;-46
2021/12/04 08:21:30;;;;;;;3.53;1.60;;;24.00;37.80;;;;;;5025620;28;20025;-46
2021/12/04 08:23:56;;;;;;;3.03;1.45;;;24.00;37.80;;;;;;5025336;28;20056;-46
2021/12/04 08:26:22;;;;;;;4.20;1.65;;;24.10;37.80;;;;;;5024821;28;20067;-47
2021/12/04 08:28:50;;;;;;;3.40;1.67;;;24.10;37.90;;;;;;5025209;28;20025;-46
2021/12/04 08:31:15;;;;;;;2.80;1.30;;;24.10;37.90;;;;;;5025071;28;20025;-46
2021/12/04 08:33:41;;;;;;;3.30;1.40;;;24.10;37.80;;;;;;5024859;28;20087;-46
2021/12/04 08:36:07;;;;;;;3.28;1.55;;;24.10;37.80;;;;;;5027084;28;20581;-47
2021/12/04 08:38:35;;;;;;;3.42;1.40;;;24.10;37.80;;;;;;5023384;28;20568;-52
2021/12/04 08:41:03;;;;;;;2.92;1.27;;;24.10;37.80;;;;;;5020775;28;20026;-47
2021/12/04 08:43:29;;;;;;;3.20;1.40;;;24.10;37.80;;;;;;5022514;28;20035;-48
2021/12/04 08:45:56;;;;;;;3.97;1.88;;;24.10;37.60;;;;;;5025362;28;20021;-47
2021/12/04 08:48:21;;;;;;;3.95;1.42;;;24.10;37.60;;;;;;5022587;28;20052;-47
2021/12/04 08:50:48;;;;;;;4.40;1.80;;;24.10;37.50;;;;;;5025255;28;20456;-48
2021/12/04 08:53:14;;;;;;;2.70;1.40;;;24.10;37.40;;;;;;5024340;28;20030;-48
2021/12/04 08:55:42;;;;;;;6.30;2.17;;;24.10;37.30;;;;;;5016621;28;20030;-47
2021/12/04 08:58:09;;;;;;;2.72;1.40;;;24.10;37.20;;;;;;5006912;28;20030;-47
2021/12/04 09:00:51;;;;;;;2.42;1.38;;;24.10;37.20;;;;;;5016470;28;20065;-47
2021/12/04 09:03:22;;;;;;;2.92;1.60;;;24.00;37.10;;;;;;5019637;28;20100;-47
2021/12/04 09:05:50;;;;;;;3.45;1.50;;;24.10;37.20;;;;;;5025403;28;20276;-48
2021/12/04 09:08:16;;;;;;;2.70;1.40;;;24.00;37.10;;;;;;5025008;28;20072;-47
2021/12/04 09:10:43;;;;;;;2.90;1.38;;;24.00;37.20;;;;;;5024987;28;20084;-47
2021/12/04 09:13:10;;;;;;;3.22;1.60;;;24.00;37.20;;;;;;5019313;28;20036;-48
2021/12/04 09:15:37;;;;;;;3.80;1.77;;;24.00;37.20;;;;;;5019772;28;20123;-48
2021/12/04 09:18:03;;;;;;;4.53;1.35;;;24.00;37.30;;;;;;5039371;28;20033;-46
2021/12/04 09:20:30;;;;;;;3.33;1.80;;;24.00;37.30;;;;;;5025432;28;20022;-47
2021/12/04 09:22:57;;;;;;;3.10;1.75;;;24.00;37.20;;;;;;5023143;28;20147;-48
2021/12/04 09:25:25;;;;;;;4.85;2.00;;;24.00;37.30;;;;;;5008073;28;20097;-47
2021/12/04 10:04:15;;;;;;;4.88;2.38;;;24.10;37.10;;;;;;5023676;28;20033;-48
2021/12/04 10:19:38;;;;;;;4.88;3.00;;;24.10;37.00;;;;;;5022433;28;20041;-46
2021/12/04 10:32:09;;;;;;;7.68;2.80;;;24.10;37.30;;;;;;5020137;28;20704;-46
2021/12/04 10:33:40;;;;;;;7.32;3.65;;;24.20;37.50;;;;;;5021066;28;20403;-47
2021/12/04 10:36:06;;;;;;;7.80;3.15;;;24.20;37.50;;;;;;5023587;28;20092;-46
2021/12/04 10:38:39;;;;;;;9.05;2.60;;;24.20;37.40;;;;;;5023212;28;20133;-46
2021/12/04 10:41:06;;;;;;;10.23;3.42;;;24.20;37.40;;;;;;5022433;28;20061;-47
2021/12/04 10:43:32;;;;;;;6.00;2.80;;;24.10;37.40;;;;;;5029146;28;20095;-46
2021/12/04 10:46:01;;;;;;;8.38;3.25;;;24.20;37.40;;;;;;5030212;28;20033;-46
2021/12/04 10:48:31;;;;;;;8.82;3.78;;;24.20;37.40;;;;;;5022715;28;20087;-46
2021/12/04 10:53:49;;;;;;;6.85;3.42;;;24.20;37.30;;;;;;5042959;28;20494;-46
2021/12/04 11:04:26;;;;;;;10.15;4.80;;;24.10;37.20;;;;;;5022577;28;20032;-46
2021/12/04 11:42:46;;;;;;;13.52;6.38;;;24.00;37.50;;;;;;5015877;28;20029;-48
2021/12/04 11:45:25;;;;;;;12.35;6.10;;;24.00;37.50;;;;;;5017996;28;20025;-48
2021/12/04 11:47:54;;;;;;;10.40;5.32;;;24.00;37.60;;;;;;5027448;28;20044;-48
2021/12/04 11:50:23;;;;;;;11.65;5.97;;;24.00;37.80;;;;;;5030571;28;20375;-47
2021/12/04 11:52:53;;;;;;;11.82;5.72;;;24.00;37.80;;;;;;5026926;28;20026;-48
2021/12/04 11:55:21;;;;;;;11.13;6.05;;;24.00;38.20;;;;;;5033192;28;20025;-48
2021/12/04 11:57:49;;;;;;;8.27;5.22;;;24.00;38.20;;;;;;5008935;28;20088;-48
2021/12/04 12:00:25;;;;;;;12.35;6.95;;;24.00;38.00;;;;;;5016994;28;20033;-47
2021/12/04 12:03:03;;;;;;;10.88;7.50;;;24.00;37.90;;;;;;5012949;28;20083;-48
2021/12/04 12:05:29;;;;;;;11.35;7.60;;;24.00;37.60;;;;;;5026296;28;20039;-47
2021/12/04 12:07:57;;;;;;;11.50;7.07;;;24.00;37.40;;;;;;5026331;28;20033;-48
2021/12/04 12:10:26;;;;;;;13.68;7.13;;;24.00;37.20;;;;;;5025544;28;20541;-47
2021/12/04 12:13:04;;;;;;;12.57;7.30;;;24.00;37.00;;;;;;5007445;28;20046;-49
2021/12/04 12:15:35;;;;;;;11.52;7.15;;;24.00;36.80;;;;;;5018704;28;20056;-48
2021/12/04 12:18:30;;;;;;;11.27;6.38;;;24.00;38.00;;;;;;5009689;28;20017;-47
2021/12/04 12:21:08;;;;;;;9.32;6.03;;;24.10;38.00;;;;;;5006277;28;20034;-46
2021/12/04 12:23:34;;;;;;;7.68;5.25;;;24.20;38.00;;;;;;5022368;28;20025;-47
2021/12/04 12:37:14;;;;;;;9.95;5.72;;;24.20;37.80;;;;;;5025689;28;20068;-47
2021/12/04 12:39:51;;;;;;;7.32;4.82;;;24.20;37.90;;;;;;5030182;28;20029;-47
2021/12/04 12:42:32;;;;;;;9.57;5.60;;;24.20;38.40;;;;;;5018236;28;20101;-47
2021/12/04 12:45:19;;;;;;;8.20;5.05;;;24.20;38.40;;;;;;5006797;28;20057;-46
2021/12/04 12:48:03;;;;;;;8.95;5.28;;;24.20;38.40;;;;;;5024401;28;20080;-47
2021/12/04 12:50:36;;;;;;;6.97;4.53;;;24.20;38.40;;;;;;5035632;28;20036;-46
2021/12/04 12:53:15;;;;;;;8.45;5.22;;;24.20;38.40;;;;;;5022893;28;20580;-46
2021/12/04 12:55:43;;;;;;;7.60;4.15;;;24.20;38.40;;;;;;5016695;28;20070;-48
2021/12/04 12:58:41;;;;;;;9.05;4.55;;;24.10;38.30;;;;;;5011543;28;20037;-48
2021/12/04 13:12:49;;;;;;;8.95;4.97;;;24.10;38.50;;;;;;5013596;28;20053;-48
2021/12/04 13:15:39;;;;;;;6.13;4.13;;;24.10;38.30;;;;;;5012624;28;20092;-48
2021/12/04 13:18:23;;;;;;;6.70;3.85;;;24.10;38.20;;;;;;5023784;28;20353;-47
2021/12/04 13:20:52;;;;;;;7.80;4.13;;;24.00;38.10;;;;;;5023780;28;20409;-47
2021/12/04 13:23:21;;;;;;;9.32;4.68;;;24.10;38.20;;;;;;5024012;28;20065;-49
2021/12/04 13:25:57;;;;;;;7.95;4.63;;;24.10;38.10;;;;;;5025139;28;20076;-47
2021/12/04 13:28:27;;;;;;;7.03;4.28;;;24.00;37.90;;;;;;5024623;28;20040;-48
2021/12/04 13:30:53;;;;;;;7.38;4.63;;;24.00;37.90;;;;;;5040549;28;20084;-47
2021/12/04 13:33:20;;;;;;;7.78;4.40;;;24.00;37.80;;;;;;5012412;28;20025;-47
2021/12/04 13:35:46;;;;;;;7.45;4.57;;;24.00;37.70;;;;;;5025231;28;20022;-47
2021/12/04 13:38:15;;;;;;;6.93;3.80;;;24.00;37.70;;;;;;5024843;28;20088;-46
2021/12/04 13:40:44;;;;;;;6.13;3.90;;;23.90;37.70;;;;;;5024743;28;20712;-47
2021/12/04 13:43:13;;;;;;;6.15;3.80;;;23.90;37.80;;;;;;5024437;28;20029;-49
2021/12/04 13:45:41;;;;;;;6.28;3.92;;;23.90;37.70;;;;;;5023459;28;20040;-48
2021/12/04 13:48:08;;;;;;;7.75;3.97;;;23.90;37.70;;;;;;5025033;28;20080;-47
2021/12/04 13:53:21;;;;;;;5.28;3.50;;;23.90;37.80;;;;;;5020854;28;20029;-46
2021/12/04 13:55:53;;;;;;;5.68;3.67;;;23.90;37.80;;;;;;5023435;28;20054;-47
2021/12/04 13:58:19;;;;;;;5.50;3.45;;;23.90;37.80;;;;;;5009171;28;20025;-46
2021/12/04 14:00:45;;;;;;;7.88;3.75;;;23.90;37.70;;;;;;5010765;28;20040;-47
2021/12/04 14:03:12;;;;;;;5.18;3.17;;;23.90;37.80;;;;;;5023959;28;20120;-47
2021/12/04 14:05:39;;;;;;;5.15;3.22;;;23.90;37.70;;;;;;5024314;28;20115;-47
2021/12/04 14:08:06;;;;;;;5.68;3.28;;;23.90;37.70;;;;;;5022418;28;20033;-46
2021/12/04 14:10:44;;;;;;;5.93;3.63;;;23.90;37.70;;;;;;5024209;28;20060;-46
2021/12/04 14:13:12;;;;;;;5.93;3.95;;;23.90;37.60;;;;;;5024214;28;20026;-47
2021/12/04 14:15:41;;;;;;;6.55;4.00;;;23.90;37.70;;;;;;5023670;28;20041;-47
2021/12/04 14:18:09;;;;;;;8.93;4.97;;;23.90;37.70;;;;;;5023690;28;20190;-46
2021/12/04 14:20:37;;;;;;;8.60;5.40;;;23.90;37.70;;;;;;5020636;28;20056;-46
2021/12/04 14:23:04;;;;;;;7.43;4.40;;;23.90;37.80;;;;;;5015661;28;20110;-46
2021/12/04 14:25:30;;;;;;;8.75;5.18;;;23.90;37.90;;;;;;5020431;28;20021;-48
2021/12/04 14:28:00;;;;;;;9.00;4.75;;;23.90;37.90;;;;;;5023645;28;20045;-46
2021/12/04 14:30:32;;;;;;;8.43;4.57;;;23.90;37.90;;;;;;5021868;28;20029;-46
2021/12/04 14:33:01;;;;;;;8.50;5.00;;;23.80;37.80;;;;;;5022872;28;20048;-46
2021/12/04 14:35:54;;;;;;;7.50;4.78;;;23.80;37.70;;;;;;5022837;28;20029;-46
2021/12/04 14:38:29;;;;;;;9.25;5.47;;;23.80;37.70;;;;;;5018782;28;20111;-46
2021/12/04 14:41:06;;;;;;;9.77;4.82;;;23.80;37.70;;;;;;5025439;28;20580;-47
2021/12/04 14:43:36;;;;;;;8.30;4.88;;;23.80;37.80;;;;;;5023237;28;20033;-46
2021/12/04 14:46:04;;;;;;;8.70;5.00;;;23.80;37.80;;;;;;5022712;28;20110;-46
2021/12/04 14:48:34;;;;;;;7.32;4.43;;;23.80;37.80;;;;;;5023176;28;20111;-46
2021/12/04 14:51:06;;;;;;;7.95;4.90;;;23.80;37.90;;;;;;5027775;28;20168;-46
2021/12/04 14:53:39;;;;;;;7.73;4.40;;;23.70;37.90;;;;;;5023169;28;20021;-46
2021/12/04 14:56:08;;;;;;;7.22;4.35;;;23.80;37.90;;;;;;5022317;28;20049;-46
2021/12/04 14:58:34;;;;;;;8.57;5.15;;;23.70;37.90;;;;;;5023215;28;20022;-46
2021/12/04 15:01:12;;;;;;;9.02;5.07;;;23.70;38.00;;;;;;5015459;28;20095;-46
2021/12/04 15:03:44;;;;;;;6.63;4.30;;;23.70;38.00;;;;;;5001915;28;20064;-46
2021/12/04 15:06:13;;;;;;;8.40;5.20;;;23.70;38.00;;;;;;5022583;28;20562;-46
2021/12/04 15:08:45;;;;;;;7.13;4.18;;;23.70;38.00;;;;;;5017166;28;20041;-46
2021/12/04 15:11:17;;;;;;;9.18;4.93;;;23.60;38.00;;;;;;5007089;28;20029;-46
2021/12/04 15:13:51;;;;;;;;;;;23.60;38.10;;;;;;5018466;28;20026;-46
2021/12/04 15:16:24;;;;;;;7.55;4.90;;;23.60;38.10;;;;;;5016616;28;20576;-46
2021/12/04 15:18:50;;;;;;;8.35;4.68;;;23.70;38.20;;;;;;5015063;28;20569;-47
2021/12/04 15:21:18;;;;;;;9.02;5.30;;;23.60;38.20;;;;;;5012770;28;20113;-47
2021/12/04 15:23:52;;;;;;;8.57;5.13;;;23.60;38.30;;;;;;5023040;28;20018;-46
2021/12/04 15:26:20;;;;;;;9.45;5.10;;;23.60;38.30;;;;;;5022498;28;20029;-47
2021/12/04 15:28:54;;;;;;;8.32;4.68;;;23.60;38.40;;;;;;5024180;28;20022;-46
2021/12/04 15:31:25;;;;;;;8.52;4.00;;;23.60;38.40;;;;;;5026228;28;20029;-47
2021/12/04 15:33:54;;;;;;;10.05;5.03;;;23.70;38.40;;;;;;5027035;28;20521;-46
2021/12/04 15:36:31;;;;;;;6.93;4.22;;;23.60;38.40;;;;;;5022697;28;20053;-47
2021/12/04 15:38:59;;;;;;;8.07;4.50;;;23.60;38.40;;;;;;5005054;28;20022;-48
2021/12/04 15:54:20;;;;;;;;;;;23.60;38.50;;;;;;5011213;28;20032;-46
2021/12/04 15:56:52;;;;;;;6.47;3.63;;;23.70;38.60;;;;;;5022669;28;19924;-47
2021/12/04 15:59:22;;;;;;;7.45;3.63;;;23.60;38.40;;;;;;5016595;28;20545;-47
2021/12/04 16:01:52;;;;;;;5.93;3.72;;;23.60;38.40;;;;;;5013203;28;20407;-47
2021/12/04 16:04:27;;;;;;;7.70;4.10;;;23.60;38.30;;;;;;5007050;28;20098;-48
2021/12/04 16:06:55;;;;;;;7.38;4.32;;;23.60;38.30;;;;;;5007294;28;20714;-47
2021/12/04 16:09:31;;;;;;;6.13;3.75;;;23.60;38.30;;;;;;5025182;28;20025;-46
2021/12/04 16:12:08;;;;;;;6.38;4.18;;;23.60;38.30;;;;;;5024329;28;20748;-48
2021/12/04 16:14:37;;;;;;;8.00;4.38;;;23.50;38.30;;;;;;5026026;28;20064;-47
2021/12/04 16:17:04;;;;;;;6.35;3.72;;;23.50;38.40;;;;;;5020182;28;20736;-48
2021/12/04 16:19:32;;;;;;;5.72;3.40;;;23.50;38.40;;;;;;5015779;28;20091;-47
2021/12/04 16:22:01;;;;;;;7.72;4.18;;;23.50;38.40;;;;;;5014051;28;20091;-47
2021/12/04 16:24:29;;;;;;;6.45;3.70;;;23.50;38.40;;;;;;5009887;28;20096;-47
2021/12/04 16:27:01;;;;;;;6.78;3.70;;;23.50;38.40;;;;;;5017915;28;20032;-47